createdAt,value
2023-01-17T00:00:02.860Z,95.86
2023-01-17T00:01:02.821Z,96.17
2023-01-17T00:02:02.840Z,96.37
2023-01-17T00:03:03.099Z,96.48
2023-01-17T00:04:02.357Z,96.69
2023-01-17T00:05:02.651Z,96.69
2023-01-17T00:06:02.668Z,96.58
2023-01-17T00:07:02.829Z,95.96
2023-01-17T00:08:02.966Z,96.17
2023-01-17T00:09:03.062Z,96.48
2023-01-17T00:10:02.435Z,96.48
2023-01-17T00:11:02.622Z,96.69
2023-01-17T00:12:02.483Z,96.69
2023-01-17T00:13:02.042Z,96.69
2023-01-17T00:14:02.492Z,96.83
2023-01-17T00:15:02.648Z,96.94
2023-01-17T00:16:02.743Z,96.52
2023-01-17T00:17:02.659Z,96.42
2023-01-17T00:18:02.870Z,96.52
2023-01-17T00:19:02.388Z,96.83
2023-01-17T00:20:02.824Z,96.89
2023-01-17T00:21:02.809Z,97.10
2023-01-17T00:22:02.739Z,96.73
2023-01-17T00:23:02.483Z,96.42
2023-01-17T00:24:02.683Z,96.73
2023-01-17T00:25:02.267Z,97.14
2023-01-17T00:26:02.428Z,97.04
2023-01-17T00:27:02.377Z,97.56
2023-01-17T00:28:02.072Z,97.87
2023-01-17T00:29:02.354Z,97.87
2023-01-17T00:30:02.293Z,97.97
2023-01-17T00:31:01.892Z,97.66
2023-01-17T00:32:02.773Z,97.35
2023-01-17T00:33:02.485Z,97.97
2023-01-17T00:34:02.778Z,97.91
2023-01-17T00:35:02.690Z,98.12
2023-01-17T00:36:02.246Z,98.54
2023-01-17T00:37:03.225Z,98.64
2023-01-17T00:38:02.573Z,98.74
2023-01-17T00:39:02.798Z,98.54
2023-01-17T00:40:03.013Z,98.64
2023-01-17T00:41:02.630Z,99.16
2023-01-17T00:42:01.968Z,99.57
2023-01-17T00:43:02.175Z,99.26
2023-01-17T00:44:02.468Z,98.54
2023-01-17T00:45:02.156Z,98.12
2023-01-17T00:46:02.035Z,98.12
2023-01-17T00:47:02.470Z,98.33
2023-01-17T00:48:02.604Z,98.54
2023-01-17T00:49:02.867Z,98.74
2023-01-17T00:50:02.870Z,98.33
2023-01-17T00:51:02.795Z,98.43
2023-01-17T00:52:02.874Z,98.22
2023-01-17T00:53:02.527Z,97.91
2023-01-17T00:54:02.390Z,98.43
2023-01-17T00:55:02.533Z,98.12
2023-01-17T00:56:02.688Z,98.43
2023-01-17T00:57:02.582Z,98.12
2023-01-17T00:58:02.437Z,98.22
2023-01-17T00:59:01.995Z,98.54
2023-01-17T01:00:02.226Z,98.54
2023-01-17T01:01:02.748Z,98.02
2023-01-17T01:02:02.347Z,97.50
2023-01-17T01:03:02.052Z,97.29
2023-01-17T01:04:02.299Z,97.60
2023-01-17T01:05:02.556Z,97.39
2023-01-17T01:06:02.180Z,97.39
2023-01-17T01:07:02.661Z,97.60
2023-01-17T01:08:02.960Z,97.29
2023-01-17T01:09:02.452Z,97.39
2023-01-17T01:10:02.781Z,97.71
2023-01-17T01:11:02.984Z,97.50
2023-01-17T01:12:02.089Z,97.19
2023-01-17T01:13:02.558Z,97.19
2023-01-17T01:14:02.096Z,97.09
2023-01-17T01:15:02.493Z,97.09
2023-01-17T01:16:02.337Z,96.88
2023-01-17T01:17:02.487Z,96.78
2023-01-17T01:18:02.741Z,96.98
2023-01-17T01:19:03.040Z,97.09
2023-01-17T01:20:02.892Z,96.78
2023-01-17T01:21:03.059Z,97.19
2023-01-17T01:22:02.052Z,97.29
2023-01-17T01:23:02.365Z,96.98
2023-01-17T01:24:02.235Z,96.47
2023-01-17T01:25:02.485Z,96.36
2023-01-17T01:26:01.971Z,96.36
2023-01-17T01:27:02.271Z,95.95
2023-01-17T01:28:02.189Z,95.74
2023-01-17T01:29:02.515Z,95.95
2023-01-17T01:30:02.144Z,96.36
2023-01-17T01:31:02.280Z,96.05
2023-01-17T01:32:02.575Z,95.53
2023-01-17T01:33:02.728Z,95.84
2023-01-17T01:34:02.681Z,95.95
2023-01-17T01:35:03.004Z,95.12
2023-01-17T01:36:02.361Z,94.60
2023-01-17T01:37:02.593Z,94.18
2023-01-17T01:38:02.430Z,94.08
2023-01-17T01:39:02.859Z,94.18
2023-01-17T01:40:02.782Z,94.49
2023-01-17T01:41:03.089Z,94.91
2023-01-17T01:42:02.203Z,94.39
2023-01-17T01:43:01.990Z,94.18
2023-01-17T01:44:02.319Z,93.66
2023-01-17T01:45:01.968Z,93.66
2023-01-17T01:46:02.320Z,93.56
2023-01-17T01:47:02.559Z,93.15
2023-01-17T01:48:02.869Z,93.46
2023-01-17T01:49:02.360Z,93.25
2023-01-17T01:50:03.340Z,93.56
2023-01-17T01:51:02.561Z,93.87
2023-01-17T01:52:01.781Z,94.08
2023-01-17T01:53:02.026Z,94.08
2023-01-17T01:54:01.563Z,94.29
2023-01-17T01:55:01.753Z,93.87
2023-01-17T01:56:02.046Z,93.66
2023-01-17T01:57:02.296Z,93.87
2023-01-17T01:58:02.647Z,93.98
2023-01-17T01:59:02.580Z,93.66
2023-01-17T02:00:02.150Z,93.56
2023-01-17T02:01:02.445Z,93.87
2023-01-17T02:02:02.823Z,93.98
2023-01-17T02:03:02.989Z,93.77
2023-01-17T02:04:02.582Z,93.98
2023-01-17T02:05:04.690Z,93.77
2023-01-17T02:06:02.507Z,93.81
2023-01-17T02:07:02.458Z,93.60
2023-01-17T02:08:02.613Z,94.12
2023-01-17T02:09:02.248Z,93.91
2023-01-17T02:10:02.668Z,93.29
2023-01-17T02:11:02.621Z,93.71
2023-01-17T02:12:02.970Z,93.50
2023-01-17T02:13:03.235Z,93.71
2023-01-17T02:14:03.093Z,93.81
2023-01-17T02:15:03.016Z,93.91
2023-01-17T02:16:03.192Z,94.02
2023-01-17T02:17:02.265Z,93.91
2023-01-17T02:18:02.628Z,93.50
2023-01-17T02:19:02.238Z,93.40
2023-01-17T02:20:02.541Z,93.81
2023-01-17T02:21:02.177Z,94.23
2023-01-17T02:22:02.991Z,94.33
2023-01-17T02:23:02.531Z,94.23
2023-01-17T02:24:02.756Z,94.33
2023-01-17T02:25:03.082Z,94.12
2023-01-17T02:26:03.153Z,94.33
2023-01-17T02:27:02.762Z,94.54
2023-01-17T02:28:03.039Z,94.95
2023-01-17T02:29:03.319Z,94.85
2023-01-17T02:30:03.036Z,94.64
2023-01-17T02:31:03.345Z,94.54
2023-01-17T02:32:02.339Z,94.43
2023-01-17T02:33:02.512Z,94.54
2023-01-17T02:34:01.892Z,94.74
2023-01-17T02:35:02.162Z,94.33
2023-01-17T02:36:02.352Z,93.81
2023-01-17T02:37:02.532Z,94.23
2023-01-17T02:38:02.823Z,94.33
2023-01-17T02:39:02.425Z,93.91
2023-01-17T02:40:02.518Z,94.12
2023-01-17T02:41:02.254Z,94.23
2023-01-17T02:42:02.283Z,94.02
2023-01-17T02:43:02.353Z,94.23
2023-01-17T02:44:01.698Z,94.43
2023-01-17T02:45:01.904Z,94.54
2023-01-17T02:46:02.312Z,94.23
2023-01-17T02:47:02.245Z,94.12
2023-01-17T02:48:01.821Z,94.23
2023-01-17T02:49:02.247Z,94.02
2023-01-17T02:50:02.007Z,94.33
2023-01-17T02:51:02.217Z,94.33
2023-01-17T02:52:02.483Z,94.02
2023-01-17T02:53:02.503Z,94.23
2023-01-17T02:54:02.420Z,94.23
2023-01-17T02:55:02.499Z,93.29
2023-01-17T02:56:02.108Z,93.50
2023-01-17T02:57:03.029Z,93.71
2023-01-17T02:58:02.921Z,92.78
2023-01-17T02:59:02.601Z,92.88
2023-01-17T03:00:02.706Z,93.08
2023-01-17T03:01:02.996Z,92.78
2023-01-17T03:02:02.930Z,93.08
2023-01-17T03:03:02.431Z,93.08
2023-01-17T03:04:02.650Z,92.98
2023-01-17T03:05:02.783Z,92.36
2023-01-17T03:06:02.196Z,92.68
2023-01-17T03:07:02.193Z,92.68
2023-01-17T03:08:01.757Z,93.08
2023-01-17T03:09:01.644Z,92.78
2023-01-17T03:10:01.612Z,92.88
2023-01-17T03:11:01.588Z,92.57
2023-01-17T03:12:02.551Z,92.68
2023-01-17T03:13:02.082Z,92.68
2023-01-17T03:14:02.336Z,92.98
2023-01-17T03:15:02.533Z,92.68
2023-01-17T03:16:02.524Z,92.68
2023-01-17T03:17:02.060Z,92.57
2023-01-17T03:18:01.945Z,91.85
2023-01-17T03:19:02.086Z,92.05
2023-01-17T03:20:02.097Z,92.26
2023-01-17T03:21:02.207Z,92.10
2023-01-17T03:22:02.228Z,92.20
2023-01-17T03:23:02.370Z,91.95
2023-01-17T03:24:02.182Z,91.99
2023-01-17T03:25:02.448Z,92.16
2023-01-17T03:26:02.734Z,92.20
2023-01-17T03:27:01.799Z,92.16
2023-01-17T03:28:02.106Z,92.05
2023-01-17T03:29:01.727Z,91.64
2023-01-17T03:30:01.706Z,91.27
2023-01-17T03:31:02.201Z,91.89
2023-01-17T03:32:02.555Z,91.78
2023-01-17T03:33:02.716Z,91.68
2023-01-17T03:34:02.829Z,91.99
2023-01-17T03:35:02.167Z,92.41
2023-01-17T03:36:02.143Z,91.78
2023-01-17T03:37:01.544Z,91.58
2023-01-17T03:38:01.377Z,91.06
2023-01-17T03:39:01.690Z,91.47
2023-01-17T03:40:01.912Z,91.78
2023-01-17T03:41:01.940Z,91.78
2023-01-17T03:42:02.116Z,91.37
2023-01-17T03:43:02.569Z,90.85
2023-01-17T03:44:01.940Z,91.16
2023-01-17T03:45:02.312Z,91.27
2023-01-17T03:46:02.321Z,91.06
2023-01-17T03:47:02.063Z,91.22
2023-01-17T03:48:01.578Z,90.75
2023-01-17T03:49:01.636Z,90.85
2023-01-17T03:50:01.804Z,91.78
2023-01-17T03:51:02.040Z,91.33
2023-01-17T03:52:02.293Z,90.50
2023-01-17T03:53:02.466Z,90.54
2023-01-17T03:54:02.383Z,90.23
2023-01-17T03:55:02.314Z,90.95
2023-01-17T03:56:01.839Z,91.06
2023-01-17T03:57:02.286Z,91.06
2023-01-17T03:58:02.277Z,90.85
2023-01-17T03:59:02.478Z,90.44
2023-01-17T04:00:01.960Z,90.12
2023-01-17T04:01:02.301Z,90.23
2023-01-17T04:02:02.943Z,90.54
2023-01-17T04:03:02.923Z,90.02
2023-01-17T04:04:02.795Z,89.92
2023-01-17T04:05:02.637Z,90.12
2023-01-17T04:06:02.790Z,90.33
2023-01-17T04:07:02.094Z,90.44
2023-01-17T04:08:01.921Z,90.64
2023-01-17T04:09:02.330Z,90.33
2023-01-17T04:10:02.016Z,89.81
2023-01-17T04:11:02.272Z,89.92
2023-01-17T04:12:02.619Z,90.23
2023-01-17T04:13:02.792Z,90.02
2023-01-17T04:14:02.387Z,90.12
2023-01-17T04:15:02.870Z,90.54
2023-01-17T04:16:02.756Z,89.71
2023-01-17T04:17:01.953Z,89.61
2023-01-17T04:18:02.226Z,89.71
2023-01-17T04:19:02.069Z,89.50
2023-01-17T04:20:02.037Z,89.61
2023-01-17T04:21:02.209Z,89.71
2023-01-17T04:22:01.883Z,90.33
2023-01-17T04:23:01.704Z,89.92
2023-01-17T04:24:02.018Z,89.50
2023-01-17T04:25:01.735Z,89.81
2023-01-17T04:26:02.579Z,89.71
2023-01-17T04:27:02.634Z,89.29
2023-01-17T04:28:02.919Z,89.61
2023-01-17T04:29:02.478Z,89.50
2023-01-17T04:30:02.756Z,88.67
2023-01-17T04:31:02.821Z,88.57
2023-01-17T04:32:02.762Z,88.88
2023-01-17T04:33:02.996Z,88.36
2023-01-17T04:34:02.819Z,87.84
2023-01-17T04:35:03.105Z,88.15
2023-01-17T04:36:03.408Z,87.63
2023-01-17T04:37:02.497Z,88.36
2023-01-17T04:38:02.561Z,88.36
2023-01-17T04:39:02.592Z,88.57
2023-01-17T04:40:02.493Z,88.05
2023-01-17T04:41:02.056Z,88.26
2023-01-17T04:42:02.847Z,88.57
2023-01-17T04:43:02.993Z,88.36
2023-01-17T04:44:02.666Z,88.67
2023-01-17T04:45:02.455Z,88.26
2023-01-17T04:46:02.441Z,88.36
2023-01-17T04:47:02.199Z,88.67
2023-01-17T04:48:02.509Z,88.98
2023-01-17T04:49:02.392Z,88.78
2023-01-17T04:50:02.398Z,88.67
2023-01-17T04:51:02.027Z,88.46
2023-01-17T04:52:02.728Z,88.46
2023-01-17T04:53:02.865Z,88.67
2023-01-17T04:54:02.531Z,87.74
2023-01-17T04:55:02.753Z,88.67
2023-01-17T04:56:03.026Z,88.67
2023-01-17T04:57:01.692Z,88.98
2023-01-17T04:58:01.868Z,88.98
2023-01-17T04:59:01.694Z,88.36
2023-01-17T05:00:01.915Z,88.26
2023-01-17T05:01:02.069Z,88.36
2023-01-17T05:02:01.966Z,88.26
2023-01-17T05:03:01.870Z,88.15
2023-01-17T05:04:02.080Z,88.26
2023-01-17T05:05:01.970Z,88.05
2023-01-17T05:06:01.817Z,87.84
2023-01-17T05:07:02.677Z,88.05
2023-01-17T05:08:02.626Z,88.15
2023-01-17T05:09:02.804Z,87.95
2023-01-17T05:10:02.329Z,87.74
2023-01-17T05:11:02.596Z,87.74
2023-01-17T05:12:02.899Z,87.84
2023-01-17T05:13:02.710Z,88.26
2023-01-17T05:14:03.006Z,88.21
2023-01-17T05:15:02.833Z,87.49
2023-01-17T05:16:02.385Z,87.22
2023-01-17T05:17:02.355Z,86.39
2023-01-17T05:18:02.164Z,86.49
2023-01-17T05:19:02.064Z,86.18
2023-01-17T05:20:02.341Z,85.87
2023-01-17T05:21:01.773Z,86.08
2023-01-17T05:22:02.938Z,86.49
2023-01-17T05:23:02.973Z,86.49
2023-01-17T05:24:02.494Z,86.02
2023-01-17T05:25:02.496Z,86.74
2023-01-17T05:26:02.660Z,86.95
2023-01-17T05:27:01.757Z,87.01
2023-01-17T05:28:02.339Z,87.12
2023-01-17T05:29:01.990Z,87.32
2023-01-17T05:30:02.128Z,86.91
2023-01-17T05:31:02.372Z,86.91
2023-01-17T05:32:02.056Z,87.22
2023-01-17T05:33:02.341Z,86.60
2023-01-17T05:34:02.324Z,87.01
2023-01-17T05:35:02.183Z,86.95
2023-01-17T05:36:02.318Z,86.43
2023-01-17T05:37:03.038Z,87.05
2023-01-17T05:38:02.999Z,86.74
2023-01-17T05:39:03.128Z,87.47
2023-01-17T05:40:02.968Z,86.74
2023-01-17T05:41:02.987Z,87.37
2023-01-17T05:42:01.457Z,87.05
2023-01-17T05:43:01.504Z,87.26
2023-01-17T05:44:01.825Z,86.85
2023-01-17T05:45:01.939Z,86.85
2023-01-17T05:46:01.903Z,87.05
2023-01-17T05:47:01.444Z,86.74
2023-01-17T05:48:01.946Z,87.05
2023-01-17T05:49:01.491Z,87.47
2023-01-17T05:50:01.829Z,86.54
2023-01-17T05:51:01.442Z,86.74
2023-01-17T05:52:02.047Z,87.05
2023-01-17T05:53:02.270Z,86.95
2023-01-17T05:54:02.671Z,87.47
2023-01-17T05:55:02.698Z,87.37
2023-01-17T05:56:02.208Z,86.74
2023-01-17T05:57:02.282Z,87.47
2023-01-17T05:58:02.595Z,86.64
2023-01-17T05:59:02.868Z,86.74
2023-01-17T06:00:02.864Z,86.74
2023-01-17T06:01:02.729Z,86.54
2023-01-17T06:02:02.248Z,86.05
2023-01-17T06:03:02.291Z,87.09
2023-01-17T06:04:02.621Z,86.95
2023-01-17T06:05:03.553Z,87.26
2023-01-17T06:06:02.879Z,86.95
2023-01-17T06:07:02.881Z,86.74
2023-01-17T06:08:03.443Z,86.85
2023-01-17T06:09:03.522Z,86.85
2023-01-17T06:10:03.280Z,86.43
2023-01-17T06:11:02.941Z,86.12
2023-01-17T06:12:02.249Z,86.95
2023-01-17T06:13:02.486Z,87.16
2023-01-17T06:14:02.782Z,87.26
2023-01-17T06:15:02.818Z,86.54
2023-01-17T06:16:02.848Z,86.05
2023-01-17T06:17:02.846Z,86.47
2023-01-17T06:18:03.329Z,86.68
2023-01-17T06:19:02.937Z,87.19
2023-01-17T06:20:03.159Z,87.40
2023-01-17T06:21:03.404Z,87.09
2023-01-17T06:22:02.836Z,87.09
2023-01-17T06:23:02.477Z,87.61
2023-01-17T06:24:04.327Z,86.99
2023-01-17T06:25:02.389Z,87.30
2023-01-17T06:26:02.371Z,87.71
2023-01-17T06:27:03.076Z,87.88
2023-01-17T06:28:02.708Z,87.57
2023-01-17T06:29:02.854Z,87.05
2023-01-17T06:30:03.209Z,87.68
2023-01-17T06:31:02.768Z,87.26
2023-01-17T06:32:02.981Z,87.78
2023-01-17T06:33:03.350Z,87.47
2023-01-17T06:34:03.040Z,86.54
2023-01-17T06:35:03.338Z,86.64
2023-01-17T06:36:03.376Z,86.22
2023-01-17T06:37:03.140Z,86.33
2023-01-17T06:38:03.468Z,86.36
2023-01-17T06:39:03.055Z,86.47
2023-01-17T06:40:03.455Z,87.40
2023-01-17T06:41:02.921Z,87.19
2023-01-17T06:42:02.236Z,86.68
2023-01-17T06:43:02.675Z,87.30
2023-01-17T06:44:02.012Z,87.82
2023-01-17T06:45:02.241Z,87.19
2023-01-17T06:46:02.518Z,87.26
2023-01-17T06:47:02.987Z,87.05
2023-01-17T06:48:02.774Z,86.95
2023-01-17T06:49:03.091Z,86.33
2023-01-17T06:50:03.105Z,85.39
2023-01-17T06:51:02.748Z,85.95
2023-01-17T06:52:02.217Z,86.36
2023-01-17T06:53:02.430Z,86.68
2023-01-17T06:54:02.453Z,86.99
2023-01-17T06:55:02.452Z,86.57
2023-01-17T06:56:02.244Z,86.99
2023-01-17T06:57:02.702Z,86.47
2023-01-17T06:58:03.184Z,86.99
2023-01-17T06:59:02.965Z,86.88
2023-01-17T07:00:02.658Z,87.09
2023-01-17T07:01:03.179Z,86.99
2023-01-17T07:02:02.251Z,86.47
2023-01-17T07:03:02.536Z,86.36
2023-01-17T07:04:01.990Z,86.68
2023-01-17T07:05:02.329Z,86.99
2023-01-17T07:06:02.176Z,86.88
2023-01-17T07:07:02.591Z,86.95
2023-01-17T07:08:02.771Z,86.74
2023-01-17T07:09:02.663Z,86.22
2023-01-17T07:10:02.379Z,85.91
2023-01-17T07:11:02.332Z,85.91
2023-01-17T07:12:02.099Z,86.02
2023-01-17T07:13:01.746Z,86.12
2023-01-17T07:14:02.216Z,86.43
2023-01-17T07:15:02.007Z,85.91
2023-01-17T07:16:02.303Z,85.33
2023-01-17T07:17:02.570Z,86.16
2023-01-17T07:18:01.840Z,85.12
2023-01-17T07:19:02.304Z,86.05
2023-01-17T07:20:02.055Z,86.68
2023-01-17T07:21:02.429Z,86.68
2023-01-17T07:22:02.579Z,86.26
2023-01-17T07:23:02.375Z,86.16
2023-01-17T07:24:02.433Z,85.74
2023-01-17T07:25:02.427Z,85.53
2023-01-17T07:26:02.209Z,86.26
2023-01-17T07:27:02.596Z,85.53
2023-01-17T07:28:02.206Z,85.47
2023-01-17T07:29:02.679Z,86.19
2023-01-17T07:30:02.592Z,85.78
2023-01-17T07:31:02.380Z,85.68
2023-01-17T07:32:02.310Z,86.51
2023-01-17T07:33:02.173Z,86.09
2023-01-17T07:34:01.911Z,85.78
2023-01-17T07:35:02.419Z,86.30
2023-01-17T07:36:01.937Z,85.99
2023-01-17T07:37:02.531Z,86.19
2023-01-17T07:38:02.275Z,86.16
2023-01-17T07:39:02.897Z,86.05
2023-01-17T07:40:02.613Z,85.85
2023-01-17T07:41:02.204Z,84.81
2023-01-17T07:42:02.178Z,84.84
2023-01-17T07:43:02.568Z,85.68
2023-01-17T07:44:02.337Z,85.78
2023-01-17T07:45:02.735Z,85.78
2023-01-17T07:46:02.758Z,85.99
2023-01-17T07:47:02.288Z,86.09
2023-01-17T07:48:01.829Z,85.78
2023-01-17T07:49:02.346Z,85.47
2023-01-17T07:50:02.184Z,84.74
2023-01-17T07:51:01.786Z,85.05
2023-01-17T07:52:01.938Z,85.36
2023-01-17T07:53:01.704Z,85.36
2023-01-17T07:54:01.990Z,85.05
2023-01-17T07:55:01.799Z,84.95
2023-01-17T07:56:01.668Z,84.74
2023-01-17T07:57:02.236Z,84.84
2023-01-17T07:58:03.042Z,85.16
2023-01-17T07:59:02.039Z,84.74
2023-01-17T08:00:02.216Z,84.53
2023-01-17T08:01:01.731Z,84.12
2023-01-17T08:02:02.786Z,84.74
2023-01-17T08:03:02.293Z,84.95
2023-01-17T08:04:02.772Z,85.16
2023-01-17T08:05:02.034Z,85.05
2023-01-17T08:06:02.467Z,84.74
2023-01-17T08:07:02.524Z,85.51
2023-01-17T08:08:02.262Z,86.76
2023-01-17T08:09:02.205Z,86.76
2023-01-17T08:10:02.263Z,86.44
2023-01-17T08:11:02.224Z,86.55
2023-01-17T08:12:03.201Z,86.44
2023-01-17T08:13:02.943Z,86.30
2023-01-17T08:14:02.642Z,86.19
2023-01-17T08:15:02.968Z,86.41
2023-01-17T08:16:02.815Z,86.41
2023-01-17T08:17:02.765Z,86.19
2023-01-17T08:18:02.241Z,85.99
2023-01-17T08:19:02.624Z,85.85
2023-01-17T08:20:02.381Z,85.85
2023-01-17T08:21:02.505Z,85.85
2023-01-17T08:22:02.911Z,86.16
2023-01-17T08:23:02.365Z,86.78
2023-01-17T08:24:02.735Z,86.57
2023-01-17T08:25:02.284Z,86.26
2023-01-17T08:26:02.703Z,85.95
2023-01-17T08:27:03.260Z,85.85
2023-01-17T08:28:02.723Z,86.16
2023-01-17T08:29:03.054Z,86.16
2023-01-17T08:30:03.025Z,86.68
2023-01-17T08:31:02.742Z,86.99
2023-01-17T08:32:02.050Z,87.19
2023-01-17T08:33:02.492Z,87.37
2023-01-17T08:34:02.621Z,87.61
2023-01-17T08:35:02.164Z,88.13
2023-01-17T08:36:02.531Z,88.65
2023-01-17T08:37:02.691Z,88.96
2023-01-17T08:38:02.761Z,88.85
2023-01-17T08:39:03.247Z,88.96
2023-01-17T08:40:02.720Z,88.75
2023-01-17T08:41:03.128Z,88.30
2023-01-17T08:42:02.048Z,87.61
2023-01-17T08:43:02.034Z,87.26
2023-01-17T08:44:02.503Z,86.88
2023-01-17T08:45:02.504Z,86.26
2023-01-17T08:46:02.032Z,86.02
2023-01-17T08:47:02.382Z,86.85
2023-01-17T08:48:02.603Z,86.22
2023-01-17T08:49:01.997Z,85.39
2023-01-17T08:50:02.207Z,84.67
2023-01-17T08:51:02.070Z,84.05
2023-01-17T08:52:02.526Z,83.94
2023-01-17T08:53:02.610Z,84.05
2023-01-17T08:54:02.884Z,83.94
2023-01-17T08:55:02.667Z,83.53
2023-01-17T08:56:02.394Z,83.32
2023-01-17T08:57:02.765Z,82.59
2023-01-17T08:58:03.250Z,82.49
2023-01-17T08:59:02.781Z,82.24
2023-01-17T09:00:02.690Z,83.07
2023-01-17T09:01:03.324Z,82.65
2023-01-17T09:02:02.093Z,82.97
2023-01-17T09:03:01.876Z,82.90
2023-01-17T09:04:01.895Z,83.42
2023-01-17T09:05:01.947Z,83.38
2023-01-17T09:06:01.695Z,84.00
2023-01-17T09:07:01.879Z,84.11
2023-01-17T09:08:01.796Z,83.59
2023-01-17T09:09:02.307Z,83.59
2023-01-17T09:10:01.867Z,84.00
2023-01-17T09:11:02.180Z,83.17
2023-01-17T09:12:01.974Z,83.07
2023-01-17T09:13:02.374Z,83.69
2023-01-17T09:14:02.128Z,83.38
2023-01-17T09:15:02.364Z,84.11
2023-01-17T09:16:01.856Z,84.31
2023-01-17T09:17:02.320Z,84.73
2023-01-17T09:18:02.768Z,84.42
2023-01-17T09:19:02.285Z,83.90
2023-01-17T09:20:02.748Z,84.42
2023-01-17T09:21:02.618Z,84.21
2023-01-17T09:22:02.040Z,84.73
2023-01-17T09:23:01.881Z,85.77
2023-01-17T09:24:02.334Z,85.42
2023-01-17T09:25:02.141Z,83.97
2023-01-17T09:26:01.907Z,83.97
2023-01-17T09:27:02.398Z,84.69
2023-01-17T09:28:02.814Z,84.07
2023-01-17T09:29:02.531Z,83.97
2023-01-17T09:30:02.806Z,83.34
2023-01-17T09:31:02.815Z,83.31
2023-01-17T09:32:01.806Z,83.93
2023-01-17T09:33:01.967Z,83.31
2023-01-17T09:34:01.716Z,82.58
2023-01-17T09:35:01.785Z,82.48
2023-01-17T09:36:01.577Z,82.06
2023-01-17T09:37:02.104Z,81.65
2023-01-17T09:38:01.858Z,81.65
2023-01-17T09:39:02.451Z,81.13
2023-01-17T09:40:02.355Z,82.27
2023-01-17T09:41:02.275Z,83.51
2023-01-17T09:42:01.600Z,83.78
2023-01-17T09:43:01.553Z,82.44
2023-01-17T09:44:01.622Z,82.29
2023-01-17T09:45:01.555Z,81.57
2023-01-17T09:46:01.539Z,80.12
2023-01-17T09:47:02.115Z,81.02
2023-01-17T09:48:01.847Z,80.40
2023-01-17T09:49:02.435Z,81.49
2023-01-17T09:50:01.970Z,81.81
2023-01-17T09:51:01.747Z,80.11
2023-01-17T09:52:02.250Z,79.49
2023-01-17T09:53:02.079Z,79.19
2023-01-17T09:54:02.550Z,79.36
2023-01-17T09:55:02.137Z,78.42
2023-01-17T09:56:01.885Z,77.46
2023-01-17T09:57:02.390Z,77.56
2023-01-17T09:58:02.585Z,76.84
2023-01-17T09:59:02.368Z,77.56
2023-01-17T10:00:03.801Z,77.22
2023-01-17T10:01:02.751Z,76.70
2023-01-17T10:02:03.275Z,76.81
2023-01-17T10:03:03.794Z,75.57
2023-01-17T10:04:03.368Z,75.36
2023-01-17T10:05:03.283Z,75.77
2023-01-17T10:06:03.171Z,75.98
2023-01-17T10:07:02.942Z,75.98
2023-01-17T10:08:04.527Z,76.70
2023-01-17T10:09:02.805Z,77.11
2023-01-17T10:10:02.819Z,76.50
2023-01-17T10:11:02.638Z,76.81
2023-01-17T10:12:02.734Z,76.90
2023-01-17T10:13:02.552Z,75.87
2023-01-17T10:14:02.698Z,76.50
2023-01-17T10:15:02.556Z,74.53
2023-01-17T10:16:02.959Z,75.67
2023-01-17T10:17:02.809Z,76.50
2023-01-17T10:18:02.673Z,76.39
2023-01-17T10:19:02.721Z,75.98
2023-01-17T10:20:02.992Z,75.36
2023-01-17T10:21:02.702Z,74.43
2023-01-17T10:22:03.225Z,75.05
2023-01-17T10:23:03.525Z,75.05
2023-01-17T10:24:03.052Z,74.02
2023-01-17T10:25:03.129Z,75.95
2023-01-17T10:26:02.907Z,76.56
2023-01-17T10:27:02.855Z,76.42
2023-01-17T10:28:02.743Z,74.67
2023-01-17T10:29:02.651Z,74.77
2023-01-17T10:30:03.013Z,75.36
2023-01-17T10:31:02.720Z,73.40
2023-01-17T10:32:03.388Z,73.50
2023-01-17T10:33:03.441Z,73.26
2023-01-17T10:34:03.306Z,74.19
2023-01-17T10:35:03.170Z,73.68
2023-01-17T10:36:03.623Z,72.54
2023-01-17T10:37:03.092Z,74.05
2023-01-17T10:38:02.883Z,74.16
2023-01-17T10:39:03.295Z,74.77
2023-01-17T10:40:03.053Z,73.61
2023-01-17T10:41:02.962Z,72.96
2023-01-17T10:42:03.390Z,72.03
2023-01-17T10:43:03.374Z,72.54
2023-01-17T10:44:03.176Z,72.75
2023-01-17T10:45:02.949Z,71.89
2023-01-17T10:46:03.023Z,70.86
2023-01-17T10:47:03.104Z,68.05
2023-01-17T10:48:02.988Z,70.52
2023-01-17T10:49:02.757Z,71.62
2023-01-17T10:50:02.677Z,71.21
2023-01-17T10:51:03.157Z,71.08
2023-01-17T10:52:02.747Z,71.59
2023-01-17T10:53:02.200Z,71.97
2023-01-17T10:54:02.774Z,72.99
2023-01-17T10:55:02.556Z,70.18
2023-01-17T10:56:02.594Z,68.24
2023-01-17T10:57:02.757Z,68.44
2023-01-17T10:58:02.407Z,68.96
2023-01-17T10:59:02.384Z,71.69
2023-01-17T11:00:02.488Z,71.28
2023-01-17T11:01:02.641Z,68.38
2023-01-17T11:02:02.945Z,67.69
2023-01-17T11:03:02.794Z,67.79
2023-01-17T11:04:02.506Z,68.51
2023-01-17T11:05:02.768Z,67.79
2023-01-17T11:06:02.789Z,67.49
2023-01-17T11:07:03.483Z,68.10
2023-01-17T11:08:03.220Z,68.00
2023-01-17T11:09:03.031Z,67.59
2023-01-17T11:10:02.975Z,65.74
2023-01-17T11:11:03.375Z,66.25
2023-01-17T11:12:03.014Z,68.82
2023-01-17T11:13:02.405Z,70.12
2023-01-17T11:14:02.780Z,67.56
2023-01-17T11:15:02.766Z,66.43
2023-01-17T11:16:02.912Z,65.92
2023-01-17T11:17:03.089Z,67.14
2023-01-17T11:18:02.756Z,67.14
2023-01-17T11:19:02.695Z,66.33
2023-01-17T11:20:02.667Z,65.92
2023-01-17T11:21:02.893Z,67.25
2023-01-17T11:22:03.449Z,69.57
2023-01-17T11:23:03.119Z,66.09
2023-01-17T11:24:03.083Z,66.40
2023-01-17T11:25:03.052Z,63.12
2023-01-17T11:26:03.025Z,62.74
2023-01-17T11:27:02.250Z,67.83
2023-01-17T11:28:02.803Z,69.54
2023-01-17T11:29:02.744Z,69.61
2023-01-17T11:30:02.549Z,66.24
2023-01-17T11:31:02.479Z,65.93
2023-01-17T11:32:02.305Z,67.64
2023-01-17T11:33:02.315Z,68.76
2023-01-17T11:34:02.328Z,68.52
2023-01-17T11:35:02.849Z,65.36
2023-01-17T11:36:02.399Z,65.05
2023-01-17T11:37:02.441Z,65.25
2023-01-17T11:38:03.057Z,66.55
2023-01-17T11:39:02.475Z,65.12
2023-01-17T11:40:03.112Z,61.13
2023-01-17T11:41:02.482Z,61.03
2023-01-17T11:42:02.514Z,58.91
2023-01-17T11:43:03.141Z,62.70
2023-01-17T11:44:02.993Z,65.12
2023-01-17T11:45:03.052Z,64.81
2023-01-17T11:46:02.800Z,60.21
2023-01-17T11:47:03.063Z,62.46
2023-01-17T11:48:03.050Z,61.44
2023-01-17T11:49:03.723Z,62.26
2023-01-17T11:50:03.425Z,61.85
2023-01-17T11:51:03.704Z,63.69
2023-01-17T11:52:03.111Z,61.75
2023-01-17T11:53:03.207Z,61.21
2023-01-17T11:54:03.587Z,60.31
2023-01-17T11:55:03.154Z,60.01
2023-01-17T11:56:03.706Z,63.48
2023-01-17T11:57:03.712Z,60.42
2023-01-17T11:58:03.137Z,60.93
2023-01-17T11:59:02.847Z,60.11
2023-01-17T12:00:02.844Z,59.94
2023-01-17T12:01:03.400Z,61.77
2023-01-17T12:02:02.721Z,60.72
2023-01-17T12:03:02.426Z,57.97
2023-01-17T12:04:02.378Z,60.62
2023-01-17T12:05:02.275Z,61.75
2023-01-17T12:06:02.406Z,61.21
2023-01-17T12:07:02.434Z,57.86
2023-01-17T12:08:02.410Z,56.43
2023-01-17T12:09:02.789Z,57.17
2023-01-17T12:10:02.268Z,57.28
2023-01-17T12:11:02.809Z,60.58
2023-01-17T12:12:04.341Z,59.55
2023-01-17T12:13:01.866Z,60.65
2023-01-17T12:14:01.769Z,57.61
2023-01-17T12:15:01.767Z,61.47
2023-01-17T12:16:01.680Z,62.29
2023-01-17T12:17:01.998Z,60.11
2023-01-17T12:18:01.961Z,57.58
2023-01-17T12:19:01.784Z,58.29
2023-01-17T12:20:01.992Z,61.06
2023-01-17T12:21:01.804Z,64.23
2023-01-17T12:22:01.671Z,65.84
2023-01-17T12:23:02.281Z,66.83
2023-01-17T12:24:02.583Z,65.26
2023-01-17T12:25:02.472Z,57.09
2023-01-17T12:26:02.602Z,56.33
2023-01-17T12:27:02.586Z,57.48
2023-01-17T12:28:02.166Z,56.92
2023-01-17T12:29:01.983Z,57.59
2023-01-17T12:30:01.890Z,59.66
2023-01-17T12:31:02.343Z,59.97
2023-01-17T12:32:01.972Z,63.53
2023-01-17T12:33:02.921Z,61.35
2023-01-17T12:34:02.546Z,56.23
2023-01-17T12:35:02.506Z,60.91
2023-01-17T12:36:02.310Z,59.96
2023-01-17T12:37:02.672Z,59.63
2023-01-17T12:38:05.216Z,61.34
2023-01-17T12:39:02.744Z,62.46
2023-01-17T12:40:02.846Z,59.57
2023-01-17T12:41:02.571Z,62.61
2023-01-17T12:42:02.292Z,58.52
2023-01-17T12:43:03.154Z,61.05
2023-01-17T12:44:02.852Z,54.85
2023-01-17T12:45:02.809Z,57.91
2023-01-17T12:46:02.725Z,53.31
2023-01-17T12:47:02.805Z,52.83
2023-01-17T12:48:02.266Z,57.86
2023-01-17T12:49:02.434Z,57.56
2023-01-17T12:50:02.368Z,55.74
2023-01-17T12:51:02.179Z,57.48
2023-01-17T12:52:02.438Z,60.69